createdAt,value
2023-04-14T00:02:13.393Z,94403.94
2023-04-14T00:05:00.305Z,94393.88
2023-04-14T00:07:56.478Z,94376.38
2023-04-14T00:10:43.003Z,94394.69
2023-04-14T00:13:29.372Z,94398.22
2023-04-14T00:16:16.153Z,94381.50
2023-04-14T00:19:02.988Z,94394.91
2023-04-14T00:21:49.280Z,94395.06
2023-04-14T00:24:43.289Z,94398.44
2023-04-14T00:27:31.724Z,94392.38
2023-04-14T00:30:17.965Z,94387.47
2023-04-14T00:33:04.674Z,94415.38
2023-04-14T00:35:50.910Z,94410.25
2023-04-14T00:38:41.064Z,94386.75
2023-04-14T00:41:36.231Z,94392.03
2023-04-14T00:44:23.277Z,94393.19
2023-04-14T00:47:09.904Z,94385.13
2023-04-14T00:49:56.913Z,94392.63
2023-04-14T00:52:48.230Z,94363.28
2023-04-14T00:55:36.113Z,94380.78
2023-04-14T00:58:22.645Z,94373.78
2023-04-14T01:01:13.317Z,94385.59
2023-04-14T01:04:00.309Z,94361.63
2023-04-14T01:06:48.401Z,94362.13
2023-04-14T01:09:34.857Z,94346.59
2023-04-14T01:12:55.488Z,94371.31
2023-04-14T01:15:52.107Z,94369.69
2023-04-14T01:18:50.092Z,94332.41
2023-04-14T01:21:44.706Z,94343.84
2023-04-14T01:24:43.543Z,94353.88
2023-04-14T01:27:30.685Z,94356.31
2023-04-14T01:30:46.084Z,94352.13
2023-04-14T01:33:34.913Z,94338.91
2023-04-14T01:36:27.387Z,94349.09
2023-04-14T01:39:16.624Z,94320.13
2023-04-14T01:42:06.772Z,94331.34
2023-04-14T01:44:57.740Z,94321.88
2023-04-14T01:47:44.377Z,94302.41
2023-04-14T01:50:31.811Z,94310.44
2023-04-14T01:53:20.117Z,94299.59
2023-04-14T01:56:08.464Z,94289.31
2023-04-14T01:58:55.799Z,94295.59
2023-04-14T02:01:43.209Z,94277.41
2023-04-14T02:04:30.252Z,94282.44
2023-04-14T02:07:17.750Z,94275.56
2023-04-14T02:10:06.143Z,94264.56
2023-04-14T02:12:55.763Z,94264.13
2023-04-14T02:15:43.086Z,94268.78
2023-04-14T02:18:31.665Z,94260.38
2023-04-14T02:21:19.001Z,94257.56
2023-04-14T02:24:05.464Z,94252.09
2023-04-14T02:27:19.213Z,94245.44
2023-04-14T02:30:14.504Z,94228.88
2023-04-14T02:33:07.331Z,94229.94
2023-04-14T02:36:04.725Z,94226.53
2023-04-14T02:39:01.127Z,94226.19
2023-04-14T02:41:49.209Z,94227.47
2023-04-14T02:44:39.417Z,94213.00
2023-04-14T02:47:38.918Z,94238.56
2023-04-14T02:50:25.905Z,94211.00
2023-04-14T02:53:26.812Z,94196.78
2023-04-14T02:56:36.240Z,94203.44
2023-04-14T02:59:23.599Z,94196.09
2023-04-14T03:02:22.487Z,94181.97
2023-04-14T03:05:18.391Z,94191.19
2023-04-14T03:08:16.107Z,94177.53
2023-04-14T03:11:06.824Z,94151.28
2023-04-14T03:13:53.768Z,94160.94
2023-04-14T03:16:40.604Z,94153.97
2023-04-14T03:19:29.794Z,94141.13
2023-04-14T03:22:18.637Z,94148.59
2023-04-14T03:25:05.268Z,94134.03
2023-04-14T03:27:52.654Z,94108.03
2023-04-14T03:30:43.337Z,94107.47
2023-04-14T03:33:31.181Z,94126.91
2023-04-14T03:36:18.549Z,94116.31
2023-04-14T03:39:06.024Z,94093.91
2023-04-14T03:41:57.351Z,94105.47
2023-04-14T03:44:50.048Z,94113.16
2023-04-14T03:47:36.486Z,94123.16
2023-04-14T03:50:23.974Z,94115.25
2023-04-14T03:53:14.397Z,94105.09
2023-04-14T03:56:01.447Z,94106.38
2023-04-14T03:58:50.976Z,94098.31
2023-04-14T04:01:37.853Z,94099.59
2023-04-14T04:04:24.595Z,94087.59
2023-04-14T04:07:14.410Z,94057.28
2023-04-14T04:10:00.717Z,94063.69
2023-04-14T04:12:48.051Z,94083.41
2023-04-14T04:15:36.991Z,94049.03
2023-04-14T04:18:27.316Z,94039.94
2023-04-14T04:21:15.310Z,94054.13
2023-04-14T04:24:05.584Z,94033.88
2023-04-14T04:26:53.522Z,94048.09
2023-04-14T04:29:41.117Z,94038.66
2023-04-14T04:32:28.230Z,94024.78
2023-04-14T04:35:15.670Z,94048.09
2023-04-14T04:38:05.719Z,94047.19
2023-04-14T04:40:52.475Z,94055.66
2023-04-14T04:43:47.872Z,94047.06
2023-04-14T04:46:46.298Z,94031.56
2023-04-14T04:49:34.673Z,94039.72
2023-04-14T04:52:32.122Z,94044.28
2023-04-14T04:55:29.965Z,94037.06
2023-04-14T04:58:19.027Z,94022.94
2023-04-14T05:01:11.965Z,94031.56
2023-04-14T05:04:07.012Z,94022.69
2023-04-14T05:06:56.346Z,94041.91
2023-04-14T05:09:42.774Z,94043.19
2023-04-14T05:12:29.704Z,94056.81
2023-04-14T05:15:16.157Z,94033.28
2023-04-14T05:18:03.003Z,94041.19
2023-04-14T05:20:52.578Z,94047.84
2023-04-14T05:23:40.576Z,94054.94
2023-04-14T05:26:49.008Z,94062.63
2023-04-14T05:29:32.714Z,94095.53
2023-04-14T05:32:19.386Z,94097.50
2023-04-14T05:35:05.951Z,94128.28
2023-04-14T05:37:52.082Z,94124.34
2023-04-14T05:40:38.737Z,94181.84
2023-04-14T05:43:24.996Z,94171.22
2023-04-14T05:46:15.205Z,94220.72
2023-04-14T05:49:03.404Z,94200.41
2023-04-14T05:51:55.645Z,94220.13
2023-04-14T05:54:46.862Z,94258.03
2023-04-14T05:57:33.117Z,94252.88
2023-04-14T06:00:20.063Z,94258.81
2023-04-14T06:03:35.447Z,94260.81
2023-04-14T06:07:19.287Z,94263.63
2023-04-14T06:10:12.145Z,94264.66
2023-04-14T06:12:58.473Z,94268.03
2023-04-14T06:15:45.023Z,94272.91
2023-04-14T06:18:30.969Z,94281.88
2023-04-14T06:21:17.387Z,94292.56
2023-04-14T06:24:03.407Z,94309.25
2023-04-14T06:27:19.916Z,94323.69
2023-04-14T06:30:07.198Z,94311.31
2023-04-14T06:33:04.841Z,94310.38
2023-04-14T06:42:59.785Z,94329.81
2023-04-14T06:50:09.924Z,94355.50
2023-04-14T06:53:09.686Z,94325.00
2023-04-14T06:56:14.207Z,94350.31
2023-04-14T06:59:05.646Z,94380.19
2023-04-14T07:01:56.162Z,94397.41
2023-04-14T07:04:52.983Z,94396.69
2023-04-14T07:07:40.848Z,94407.00
2023-04-14T07:10:38.590Z,94394.25
2023-04-14T07:13:34.463Z,94418.53
2023-04-14T07:16:27.068Z,94413.97
2023-04-14T07:19:16.347Z,94440.31
2023-04-14T07:22:07.963Z,94452.69
2023-04-14T07:25:06.593Z,94440.66
2023-04-14T07:28:06.600Z,94467.41
2023-04-14T07:31:15.470Z,94456.59
2023-04-14T07:34:25.893Z,94502.63
2023-04-14T07:40:17.417Z,94520.06
2023-04-14T07:43:04.462Z,94522.25
2023-04-14T07:45:59.078Z,94524.31
2023-04-14T07:48:48.363Z,94540.19
2023-04-14T07:51:39.892Z,94542.53
2023-04-14T07:54:37.717Z,94498.41
2023-04-14T08:00:48.235Z,94501.13
2023-04-14T08:03:49.490Z,94520.66
2023-04-14T08:16:05.695Z,94552.34
2023-04-14T08:27:46.554Z,94558.94
2023-04-14T08:30:53.195Z,94573.25
2023-04-14T08:34:04.052Z,94570.88
2023-04-14T08:41:08.479Z,94563.72
2023-04-14T08:45:02.414Z,94590.25
2023-04-14T08:48:19.124Z,94591.94
2023-04-14T08:51:29.236Z,94627.28
2023-04-14T08:58:10.796Z,94585.88
2023-04-14T09:01:13.543Z,94580.34
2023-04-14T09:11:23.605Z,94548.72
2023-04-14T09:14:55.731Z,94549.78
2023-04-14T09:18:47.253Z,94559.47
2023-04-14T09:22:10.276Z,94622.81
2023-04-14T09:34:09.647Z,94566.03
2023-04-14T09:40:50.797Z,94540.84
2023-04-14T13:02:09.317Z,94471.84
2023-04-14T13:05:07.343Z,94490.72
2023-04-14T13:13:08.718Z,94489.50
2023-04-14T13:16:14.586Z,94459.59
2023-04-14T13:19:18.676Z,94437.13
2023-04-14T13:22:32.548Z,94466.81
2023-04-14T13:25:46.949Z,94439.72
2023-04-14T13:28:45.125Z,94447.47
2023-04-14T13:36:53.567Z,94458.44
2023-04-14T13:40:40.556Z,94439.81
2023-04-14T13:54:18.018Z,94484.94
2023-04-14T14:25:19.655Z,94457.88
2023-04-14T14:28:53.730Z,94466.66
2023-04-14T14:32:41.228Z,94486.66
2023-04-14T14:50:56.139Z,94460.88
2023-04-14T15:07:41.244Z,94529.00
2023-04-14T15:34:28.508Z,94537.50
2023-04-14T15:40:51.180Z,94525.66
2023-04-14T15:43:52.843Z,94553.78
2023-04-14T15:47:04.326Z,94539.47
2023-04-14T15:50:08.824Z,94548.63
2023-04-14T15:53:00.512Z,94522.25
2023-04-14T15:55:53.358Z,94555.50
2023-04-14T15:58:41.869Z,94538.41
2023-04-14T16:01:31.899Z,94530.31
2023-04-14T16:04:20.020Z,94553.75
2023-04-14T16:07:11.482Z,94535.97
2023-04-14T16:10:01.115Z,94541.53
2023-04-14T16:12:51.552Z,94545.41
2023-04-14T16:15:44.342Z,94550.78
2023-04-14T16:18:37.105Z,94564.63
2023-04-14T16:21:32.909Z,94548.19
2023-04-14T16:24:20.764Z,94549.41
2023-04-14T16:27:19.451Z,94532.13
2023-04-14T17:00:09.284Z,94612.69
2023-04-14T17:02:40.460Z,94599.88
2023-04-14T17:05:43.607Z,94600.16
2023-04-14T17:12:59.124Z,94601.09
2023-04-14T17:16:56.961Z,94641.41
2023-04-14T17:24:48.453Z,94599.81
2023-04-14T17:30:59.319Z,94611.44
2023-04-14T17:45:58.292Z,94653.84
2023-04-14T18:16:13.535Z,94722.69
2023-04-14T18:19:23.800Z,94739.84
2023-04-14T19:01:08.530Z,94782.19
2023-04-14T19:08:15.768Z,94833.91
2023-04-14T19:11:38.504Z,94812.94
2023-04-14T19:16:18.067Z,94806.97
2023-04-14T19:28:36.827Z,94847.75
2023-04-14T19:36:32.726Z,94833.97
2023-04-14T19:39:23.174Z,94816.66
2023-04-14T19:53:28.934Z,94856.38
2023-04-14T19:56:36.791Z,94808.63
2023-04-14T19:59:36.560Z,94807.63
2023-04-14T20:02:30.241Z,94787.03
2023-04-14T20:15:36.334Z,94841.78
2023-04-14T20:28:25.355Z,94807.19
2023-04-14T21:05:03.384Z,94840.25
2023-04-14T21:18:07.450Z,94832.69
2023-04-14T21:44:12.782Z,94871.59
2023-04-14T21:47:14.446Z,94876.06
2023-04-14T21:50:16.840Z,94897.97
2023-04-14T21:53:09.019Z,94891.19
2023-04-14T21:56:11.070Z,94880.09
2023-04-14T21:59:07.919Z,94854.09
2023-04-14T22:02:01.391Z,94885.81
2023-04-14T22:05:12.406Z,94857.38
2023-04-14T22:11:10.566Z,94885.09
2023-04-14T22:14:02.384Z,94888.53
2023-04-14T22:16:55.592Z,94884.31
2023-04-14T22:19:55.174Z,94877.28
2023-04-14T22:22:46.799Z,94882.44
2023-04-14T22:25:37.325Z,94892.47
2023-04-14T22:28:24.003Z,94885.66
2023-04-14T22:31:13.696Z,94895.72
2023-04-14T22:34:09.582Z,94845.38
2023-04-14T22:37:03.050Z,94874.38
2023-04-14T22:40:19.128Z,94916.75
2023-04-14T22:43:39.629Z,94916.13
2023-04-14T22:46:39.301Z,94860.25
2023-04-14T22:58:01.493Z,94882.44
2023-04-14T23:01:22.487Z,94879.50
2023-04-14T23:05:31.923Z,94889.72
2023-04-14T23:12:57.346Z,94859.88
2023-04-14T23:16:03.443Z,94863.78
2023-04-14T23:19:32.616Z,94900.38
2023-04-14T23:23:20.814Z,94837.13
2023-04-14T23:26:39.515Z,94859.75
2023-04-14T23:30:02.357Z,94864.72
2023-04-14T23:33:33.624Z,94902.59
2023-04-14T23:37:37.086Z,94887.44
2023-04-14T23:48:13.044Z,94827.28
2023-04-14T23:55:05.445Z,94865.81
2023-04-14T23:58:08.001Z,94889.84
